sensor_id;sensor_type;location;lat;lon;timestamp;pressure;altitude;pressure_sealevel;temperature;humidity
43115;BME280;28727;50.068;14.452;2023-04-22T00:01:06;99058.34;;;10.34;60.85
43115;BME280;28727;50.068;14.452;2023-04-22T00:03:40;99054.44;;;10.30;60.50
43115;BME280;28727;50.068;14.452;2023-04-22T00:06:17;99058.38;;;10.25;60.79
43115;BME280;28727;50.068;14.452;2023-04-22T00:08:48;99054.28;;;10.23;60.85
43115;BME280;28727;50.068;14.452;2023-04-22T00:11:20;99053.63;;;10.21;60.86
43115;BME280;28727;50.068;14.452;2023-04-22T00:13:52;99055.00;;;10.17;60.77
43115;BME280;28727;50.068;14.452;2023-04-22T00:16:25;99053.66;;;10.13;61.03
43115;BME280;28727;50.068;14.452;2023-04-22T00:18:56;99052.34;;;10.09;60.98
43115;BME280;28727;50.068;14.452;2023-04-22T00:21:28;99052.50;;;10.07;61.39
43115;BME280;28727;50.068;14.452;2023-04-22T00:24:03;99044.31;;;10.02;61.47
43115;BME280;28727;50.068;14.452;2023-04-22T00:26:35;99047.47;;;9.98;62.09
43115;BME280;28727;50.068;14.452;2023-04-22T00:29:06;99041.72;;;9.94;61.75
43115;BME280;28727;50.068;14.452;2023-04-22T00:31:38;99049.13;;;9.91;62.40
43115;BME280;28727;50.068;14.452;2023-04-22T00:34:10;99039.09;;;9.86;61.83
43115;BME280;28727;50.068;14.452;2023-04-22T00:36:44;99039.47;;;9.83;62.40
43115;BME280;28727;50.068;14.452;2023-04-22T00:39:16;99032.88;;;9.79;62.16
43115;BME280;28727;50.068;14.452;2023-04-22T00:41:48;99042.94;;;9.75;62.53
43115;BME280;28727;50.068;14.452;2023-04-22T00:44:21;99033.56;;;9.73;62.52
43115;BME280;28727;50.068;14.452;2023-04-22T00:46:53;99032.09;;;9.70;63.11
43115;BME280;28727;50.068;14.452;2023-04-22T00:49:26;99028.97;;;9.67;63.34
43115;BME280;28727;50.068;14.452;2023-04-22T00:51:58;99030.13;;;9.64;62.99
43115;BME280;28727;50.068;14.452;2023-04-22T00:54:31;99033.94;;;9.62;63.43
43115;BME280;28727;50.068;14.452;2023-04-22T00:57:04;99035.09;;;9.59;63.36
43115;BME280;28727;50.068;14.452;2023-04-22T00:59:38;99026.06;;;9.54;63.37
43115;BME280;28727;50.068;14.452;2023-04-22T01:02:10;99031.50;;;9.52;62.93
43115;BME280;28727;50.068;14.452;2023-04-22T01:04:42;99036.47;;;9.47;63.83
43115;BME280;28727;50.068;14.452;2023-04-22T01:07:14;99033.69;;;9.40;63.76
43115;BME280;28727;50.068;14.452;2023-04-22T01:09:46;99035.00;;;9.36;64.64
43115;BME280;28727;50.068;14.452;2023-04-22T01:12:18;99038.97;;;9.32;64.54
43115;BME280;28727;50.068;14.452;2023-04-22T01:14:50;99040.97;;;9.30;64.16
43115;BME280;28727;50.068;14.452;2023-04-22T01:17:22;99036.84;;;9.28;64.39
43115;BME280;28727;50.068;14.452;2023-04-22T01:19:55;99037.16;;;9.25;64.57
43115;BME280;28727;50.068;14.452;2023-04-22T01:22:31;99046.06;;;9.24;64.48
43115;BME280;28727;50.068;14.452;2023-04-22T01:25:10;99041.94;;;9.21;64.56
43115;BME280;28727;50.068;14.452;2023-04-22T01:27:42;99043.13;;;9.19;64.86
43115;BME280;28727;50.068;14.452;2023-04-22T01:30:15;99043.44;;;9.16;65.10
43115;BME280;28727;50.068;14.452;2023-04-22T01:32:47;99040.13;;;9.14;65.69
43115;BME280;28727;50.068;14.452;2023-04-22T01:35:18;99035.88;;;9.13;65.58
43115;BME280;28727;50.068;14.452;2023-04-22T01:37:50;99039.81;;;9.09;65.21
43115;BME280;28727;50.068;14.452;2023-04-22T01:40:23;99034.91;;;9.06;65.69
43115;BME280;28727;50.068;14.452;2023-04-22T01:43:00;99036.19;;;9.01;65.61
43115;BME280;28727;50.068;14.452;2023-04-22T01:45:32;99036.41;;;9.00;65.99
43115;BME280;28727;50.068;14.452;2023-04-22T01:48:04;99042.97;;;8.96;65.64
43115;BME280;28727;50.068;14.452;2023-04-22T01:50:40;99037.22;;;8.92;66.05
43115;BME280;28727;50.068;14.452;2023-04-22T01:53:12;99037.38;;;8.91;66.15
43115;BME280;28727;50.068;14.452;2023-04-22T01:55:44;99044.44;;;8.90;66.29
43115;BME280;28727;50.068;14.452;2023-04-22T01:58:17;99037.72;;;8.88;65.59
43115;BME280;28727;50.068;14.452;2023-04-22T02:00:49;99033.59;;;8.85;66.11
43115;BME280;28727;50.068;14.452;2023-04-22T02:03:20;99039.19;;;8.82;67.06
43115;BME280;28727;50.068;14.452;2023-04-22T02:05:52;99035.91;;;8.80;66.39
43115;BME280;28727;50.068;14.452;2023-04-22T02:08:24;99033.78;;;8.76;66.17
43115;BME280;28727;50.068;14.452;2023-04-22T02:10:56;99040.34;;;8.72;66.62
43115;BME280;28727;50.068;14.452;2023-04-22T02:13:37;99041.66;;;8.68;66.87
43115;BME280;28727;50.068;14.452;2023-04-22T02:16:09;99035.09;;;8.63;67.26
43115;BME280;28727;50.068;14.452;2023-04-22T02:18:41;99031.94;;;8.60;67.15
43115;BME280;28727;50.068;14.452;2023-04-22T02:21:15;99031.28;;;8.58;67.65
43115;BME280;28727;50.068;14.452;2023-04-22T02:23:46;99030.00;;;8.54;67.30
43115;BME280;28727;50.068;14.452;2023-04-22T02:26:18;99028.66;;;8.50;66.97
43115;BME280;28727;50.068;14.452;2023-04-22T02:28:51;99031.78;;;8.45;68.23
43115;BME280;28727;50.068;14.452;2023-04-22T02:31:22;99038.84;;;8.45;68.02
43115;BME280;28727;50.068;14.452;2023-04-22T02:33:55;99030.47;;;8.41;67.79
43115;BME280;28727;50.068;14.452;2023-04-22T02:36:26;99031.44;;;8.40;68.21
43115;BME280;28727;50.068;14.452;2023-04-22T02:39:00;99026.50;;;8.37;68.47
43115;BME280;28727;50.068;14.452;2023-04-22T02:41:33;99032.75;;;8.36;67.99
43115;BME280;28727;50.068;14.452;2023-04-22T02:44:06;99033.91;;;8.34;67.71
43115;BME280;28727;50.068;14.452;2023-04-22T02:46:38;99028.78;;;8.32;68.27
43115;BME280;28727;50.068;14.452;2023-04-22T02:49:10;99027.13;;;8.31;68.21
43115;BME280;28727;50.068;14.452;2023-04-22T02:51:43;99029.09;;;8.29;68.62
43115;BME280;28727;50.068;14.452;2023-04-22T02:54:14;99023.00;;;8.29;68.18
43115;BME280;28727;50.068;14.452;2023-04-22T02:56:46;99020.53;;;8.27;68.23
43115;BME280;28727;50.068;14.452;2023-04-22T02:59:18;99020.88;;;8.24;67.95
43115;BME280;28727;50.068;14.452;2023-04-22T03:01:51;99022.34;;;8.18;69.15
43115;BME280;28727;50.068;14.452;2023-04-22T03:04:38;99018.38;;;8.14;69.30
43115;BME280;28727;50.068;14.452;2023-04-22T03:07:09;99019.34;;;8.13;68.85
43115;BME280;28727;50.068;14.452;2023-04-22T03:09:41;99029.38;;;8.10;69.61
43115;BME280;28727;50.068;14.452;2023-04-22T03:12:13;99024.47;;;8.07;69.83
43115;BME280;28727;50.068;14.452;2023-04-22T03:14:46;99017.69;;;8.04;69.87
43115;BME280;28727;50.068;14.452;2023-04-22T03:17:18;99019.66;;;8.02;70.26
43115;BME280;28727;50.068;14.452;2023-04-22T03:19:50;99022.47;;;8.01;70.19
43115;BME280;28727;50.068;14.452;2023-04-22T03:22:24;99025.25;;;7.99;70.34
43115;BME280;28727;50.068;14.452;2023-04-22T03:25:00;99022.09;;;7.96;70.12
43115;BME280;28727;50.068;14.452;2023-04-22T03:27:33;99022.28;;;7.94;69.65
43115;BME280;28727;50.068;14.452;2023-04-22T03:30:08;99016.34;;;7.92;69.98
43115;BME280;28727;50.068;14.452;2023-04-22T03:32:39;99019.31;;;7.89;70.26
43115;BME280;28727;50.068;14.452;2023-04-22T03:35:28;99014.69;;;7.83;69.81
43115;BME280;28727;50.068;14.452;2023-04-22T03:38:03;99015.00;;;7.80;70.41
43115;BME280;28727;50.068;14.452;2023-04-22T03:40:37;99015.97;;;7.79;69.86
43115;BME280;28727;50.068;14.452;2023-04-22T03:43:21;99011.19;;;7.74;70.02
43115;BME280;28727;50.068;14.452;2023-04-22T03:46:03;99021.03;;;7.72;70.27
43115;BME280;28727;50.068;14.452;2023-04-22T03:48:37;99019.41;;;7.71;70.79
43115;BME280;28727;50.068;14.452;2023-04-22T03:51:14;99018.75;;;7.69;70.76
43115;BME280;28727;50.068;14.452;2023-04-22T03:53:49;99020.84;;;7.66;70.90
43115;BME280;28727;50.068;14.452;2023-04-22T03:56:46;99013.97;;;7.65;70.35
43115;BME280;28727;50.068;14.452;2023-04-22T03:59:18;99018.41;;;7.64;70.74
43115;BME280;28727;50.068;14.452;2023-04-22T04:01:51;99021.16;;;7.63;70.69
43115;BME280;28727;50.068;14.452;2023-04-22T04:04:49;99026.09;;;7.58;70.74
43115;BME280;28727;50.068;14.452;2023-04-22T04:07:22;99027.06;;;7.57;70.75
43115;BME280;28727;50.068;14.452;2023-04-22T04:09:54;99019.19;;;7.57;70.44
43115;BME280;28727;50.068;14.452;2023-04-22T04:12:26;99017.53;;;7.56;71.02
43115;BME280;28727;50.068;14.452;2023-04-22T04:14:58;99017.53;;;7.56;70.83
43115;BME280;28727;50.068;14.452;2023-04-22T04:17:30;99010.78;;;7.53;70.52
43115;BME280;28727;50.068;14.452;2023-04-22T04:20:11;99012.59;;;7.53;70.73
43115;BME280;28727;50.068;14.452;2023-04-22T04:22:44;99016.88;;;7.54;70.77
43115;BME280;28727;50.068;14.452;2023-04-22T04:25:16;99012.41;;;7.54;70.82
43115;BME280;28727;50.068;14.452;2023-04-22T04:27:49;99012.25;;;7.56;70.73
43115;BME280;28727;50.068;14.452;2023-04-22T04:30:23;99009.50;;;7.57;71.14
43115;BME280;28727;50.068;14.452;2023-04-22T04:33:00;99008.38;;;7.60;71.16
43115;BME280;28727;50.068;14.452;2023-04-22T04:35:39;99012.66;;;7.69;71.07
43115;BME280;28727;50.068;14.452;2023-04-22T04:38:14;99006.44;;;7.78;70.65
43115;BME280;28727;50.068;14.452;2023-04-22T04:41:10;99012.06;;;7.91;69.81
43115;BME280;28727;50.068;14.452;2023-04-22T04:43:42;99017.34;;;7.99;69.68
43115;BME280;28727;50.068;14.452;2023-04-22T04:46:25;99015.75;;;8.06;69.27
43115;BME280;28727;50.068;14.452;2023-04-22T04:49:01;99013.25;;;8.13;69.58
43115;BME280;28727;50.068;14.452;2023-04-22T04:51:39;99017.91;;;8.27;68.78
43115;BME280;28727;50.068;14.452;2023-04-22T04:54:12;99020.56;;;8.43;68.15
43115;BME280;28727;50.068;14.452;2023-04-22T04:56:45;99010.72;;;8.61;68.13
43115;BME280;28727;50.068;14.452;2023-04-22T04:59:17;99017.16;;;8.83;67.47
43115;BME280;28727;50.068;14.452;2023-04-22T05:01:51;99018.44;;;9.03;67.30
43115;BME280;28727;50.068;14.452;2023-04-22T05:04:23;99016.06;;;9.25;66.33
43115;BME280;28727;50.068;14.452;2023-04-22T05:07:19;99020.44;;;9.49;65.76
43115;BME280;28727;50.068;14.452;2023-04-22T05:09:53;99022.53;;;9.69;65.75
43115;BME280;28727;50.068;14.452;2023-04-22T05:12:26;99019.78;;;9.94;64.51
43115;BME280;28727;50.068;14.452;2023-04-22T05:14:58;99023.97;;;10.19;64.20
43115;BME280;28727;50.068;14.452;2023-04-22T05:17:30;99025.81;;;10.41;63.40
43115;BME280;28727;50.068;14.452;2023-04-22T05:20:03;99025.81;;;10.64;62.58
43115;BME280;28727;50.068;14.452;2023-04-22T05:22:35;99029.91;;;10.89;62.24
43115;BME280;28727;50.068;14.452;2023-04-22T05:25:15;99026.28;;;11.20;61.43
43115;BME280;28727;50.068;14.452;2023-04-22T05:27:56;99029.31;;;11.46;60.36
43115;BME280;28727;50.068;14.452;2023-04-22T05:30:30;99016.38;;;11.66;59.84
43115;BME280;28727;50.068;14.452;2023-04-22T05:33:02;99024.84;;;11.90;59.56
43115;BME280;28727;50.068;14.452;2023-04-22T05:35:34;99029.47;;;12.18;58.80
43115;BME280;28727;50.068;14.452;2023-04-22T05:38:07;99032.19;;;12.46;57.56
43115;BME280;28727;50.068;14.452;2023-04-22T05:40:41;99029.59;;;12.73;56.93
43115;BME280;28727;50.068;14.452;2023-04-22T05:43:40;99031.06;;;13.04;55.62
43115;BME280;28727;50.068;14.452;2023-04-22T05:46:17;99024.97;;;13.31;54.45
43115;BME280;28727;50.068;14.452;2023-04-22T05:48:50;99026.78;;;13.59;53.81
43115;BME280;28727;50.068;14.452;2023-04-22T05:51:46;99028.16;;;13.89;52.69
43115;BME280;28727;50.068;14.452;2023-04-22T05:54:21;99022.78;;;14.23;52.22
43115;BME280;28727;50.068;14.452;2023-04-22T05:56:53;99023.06;;;14.48;51.17
43115;BME280;28727;50.068;14.452;2023-04-22T05:59:50;99028.22;;;14.83;50.57
43115;BME280;28727;50.068;14.452;2023-04-22T06:02:22;99028.63;;;15.12;49.98
43115;BME280;28727;50.068;14.452;2023-04-22T06:04:55;99025.09;;;15.38;48.57
43115;BME280;28727;50.068;14.452;2023-04-22T06:07:53;99026.31;;;15.62;47.48
43115;BME280;28727;50.068;14.452;2023-04-22T06:10:25;99029.09;;;15.87;47.25
43115;BME280;28727;50.068;14.452;2023-04-22T06:12:57;99018.75;;;16.10;46.09
43115;BME280;28727;50.068;14.452;2023-04-22T06:15:54;99019.88;;;16.34;45.18
43115;BME280;28727;50.068;14.452;2023-04-22T06:18:26;99019.09;;;16.65;44.48
43115;BME280;28727;50.068;14.452;2023-04-22T06:20:59;99017.50;;;16.89;44.26
43115;BME280;28727;50.068;14.452;2023-04-22T06:23:32;99019.34;;;17.13;43.86
43115;BME280;28727;50.068;14.452;2023-04-22T06:26:04;99021.22;;;17.31;43.04
43115;BME280;28727;50.068;14.452;2023-04-22T06:28:37;99022.88;;;17.50;42.36
43115;BME280;28727;50.068;14.452;2023-04-22T06:31:14;99018.72;;;17.79;42.13
43115;BME280;28727;50.068;14.452;2023-04-22T06:33:47;99021.25;;;18.04;41.36
43115;BME280;28727;50.068;14.452;2023-04-22T06:36:19;99020.56;;;18.26;40.91
43115;BME280;28727;50.068;14.452;2023-04-22T06:38:59;99010.41;;;18.47;40.57
43115;BME280;28727;50.068;14.452;2023-04-22T06:41:42;99015.16;;;18.74;39.95
43115;BME280;28727;50.068;14.452;2023-04-22T06:44:35;99003.81;;;18.91;39.60
43115;BME280;28727;50.068;14.452;2023-04-22T06:47:19;99010.94;;;19.08;39.84
43115;BME280;28727;50.068;14.452;2023-04-22T06:50:02;99007.88;;;19.16;38.83
43115;BME280;28727;50.068;14.452;2023-04-22T06:52:40;99010.94;;;19.32;38.33
43115;BME280;28727;50.068;14.452;2023-04-22T06:55:12;99006.94;;;19.11;37.93
43115;BME280;28727;50.068;14.452;2023-04-22T06:57:43;99006.94;;;19.11;38.08
43115;BME280;28727;50.068;14.452;2023-04-22T07:00:15;99012.09;;;19.24;37.33
43115;BME280;28727;50.068;14.452;2023-04-22T07:02:47;99017.44;;;19.36;36.61
43115;BME280;28727;50.068;14.452;2023-04-22T07:05:19;99012.22;;;19.52;36.76
43115;BME280;28727;50.068;14.452;2023-04-22T07:07:51;99014.97;;;19.69;37.20
43115;BME280;28727;50.068;14.452;2023-04-22T07:10:26;99012.69;;;20.01;35.86
43115;BME280;28727;50.068;14.452;2023-04-22T07:13:30;99009.72;;;20.54;35.43
43115;BME280;28727;50.068;14.452;2023-04-22T07:16:08;99000.78;;;20.99;33.62
43115;BME280;28727;50.068;14.452;2023-04-22T07:18:40;99004.16;;;21.22;33.43
43115;BME280;28727;50.068;14.452;2023-04-22T07:21:12;98999.34;;;21.63;33.01
43115;BME280;28727;50.068;14.452;2023-04-22T07:23:44;98983.81;;;22.09;33.09
43115;BME280;28727;50.068;14.452;2023-04-22T07:26:15;98988.03;;;22.53;31.90
43115;BME280;28727;50.068;14.452;2023-04-22T07:28:49;98995.69;;;22.66;31.20
43115;BME280;28727;50.068;14.452;2023-04-22T07:31:20;98992.28;;;22.76;30.01
43115;BME280;28727;50.068;14.452;2023-04-22T07:33:52;98996.69;;;22.87;29.55
43115;BME280;28727;50.068;14.452;2023-04-22T07:36:24;98993.41;;;23.12;29.48
43115;BME280;28727;50.068;14.452;2023-04-22T07:38:57;98998.03;;;23.21;29.03
43115;BME280;28727;50.068;14.452;2023-04-22T07:41:29;99001.00;;;23.20;30.04
43115;BME280;28727;50.068;14.452;2023-04-22T07:44:01;99009.56;;;23.12;30.14
43115;BME280;28727;50.068;14.452;2023-04-22T07:46:36;99004.88;;;23.39;29.77
43115;BME280;28727;50.068;14.452;2023-04-22T07:49:09;99010.78;;;23.73;28.41
43115;BME280;28727;50.068;14.452;2023-04-22T07:51:40;99002.25;;;23.91;28.64
43115;BME280;28727;50.068;14.452;2023-04-22T07:54:12;99003.94;;;24.18;28.34
43115;BME280;28727;50.068;14.452;2023-04-22T07:56:44;98994.00;;;24.33;27.99
43115;BME280;28727;50.068;14.452;2023-04-22T07:59:16;98992.97;;;24.55;27.63
43115;BME280;28727;50.068;14.452;2023-04-22T08:01:47;98998.94;;;24.62;28.04
43115;BME280;28727;50.068;14.452;2023-04-22T08:04:23;99002.16;;;24.48;28.12
43115;BME280;28727;50.068;14.452;2023-04-22T08:06:55;98995.97;;;24.73;27.51
43115;BME280;28727;50.068;14.452;2023-04-22T08:09:27;98988.41;;;25.06;27.19
43115;BME280;28727;50.068;14.452;2023-04-22T08:11:59;98991.94;;;25.26;26.56
43115;BME280;28727;50.068;14.452;2023-04-22T08:14:38;98982.09;;;25.51;26.50
43115;BME280;28727;50.068;14.452;2023-04-22T08:17:09;98988.91;;;25.43;26.69
43115;BME280;28727;50.068;14.452;2023-04-22T08:19:41;98991.03;;;25.51;26.29
43115;BME280;28727;50.068;14.452;2023-04-22T08:22:13;98978.81;;;25.79;26.39
43115;BME280;28727;50.068;14.452;2023-04-22T08:24:45;98977.47;;;25.77;26.58
43115;BME280;28727;50.068;14.452;2023-04-22T08:27:17;98979.13;;;25.73;26.96
43115;BME280;28727;50.068;14.452;2023-04-22T08:29:49;98969.59;;;25.80;26.59
43115;BME280;28727;50.068;14.452;2023-04-22T08:32:21;98977.00;;;26.19;25.51
43115;BME280;28727;50.068;14.452;2023-04-22T08:34:56;98977.88;;;26.53;24.95
43115;BME280;28727;50.068;14.452;2023-04-22T08:37:35;98978.50;;;26.79;24.85
43115;BME280;28727;50.068;14.452;2023-04-22T08:40:07;98969.50;;;26.88;25.29
43115;BME280;28727;50.068;14.452;2023-04-22T08:42:39;98969.63;;;26.73;24.37
43115;BME280;28727;50.068;14.452;2023-04-22T08:45:13;98986.44;;;26.31;25.19
43115;BME280;28727;50.068;14.452;2023-04-22T08:47:45;98979.31;;;25.91;25.80
43115;BME280;28727;50.068;14.452;2023-04-22T08:50:19;98973.56;;;25.98;25.73
43115;BME280;28727;50.068;14.452;2023-04-22T08:52:56;98968.09;;;26.13;25.27
43115;BME280;28727;50.068;14.452;2023-04-22T08:55:28;98961.66;;;26.48;24.91
43115;BME280;28727;50.068;14.452;2023-04-22T08:58:03;98951.56;;;26.93;24.79
43115;BME280;28727;50.068;14.452;2023-04-22T09:00:37;98958.09;;;27.20;24.75
43115;BME280;28727;50.068;14.452;2023-04-22T09:03:09;98961.75;;;27.06;24.59
43115;BME280;28727;50.068;14.452;2023-04-22T09:05:41;98950.78;;;26.87;24.44
43115;BME280;28727;50.068;14.452;2023-04-22T09:08:13;98953.75;;;27.19;24.25
43115;BME280;28727;50.068;14.452;2023-04-22T09:10:46;98951.09;;;27.14;24.34
43115;BME280;28727;50.068;14.452;2023-04-22T09:13:18;98943.13;;;27.52;24.25
43115;BME280;28727;50.068;14.452;2023-04-22T09:15:51;98937.84;;;27.84;23.46
43115;BME280;28727;50.068;14.452;2023-04-22T09:18:23;98938.44;;;28.00;23.37
43115;BME280;28727;50.068;14.452;2023-04-22T09:20:55;98931.84;;;28.06;23.61
43115;BME280;28727;50.068;14.452;2023-04-22T09:23:27;98935.66;;;27.86;23.35
43115;BME280;28727;50.068;14.452;2023-04-22T09:26:00;98930.63;;;27.75;23.55
43115;BME280;28727;50.068;14.452;2023-04-22T09:28:35;98930.94;;;27.73;22.57
43115;BME280;28727;50.068;14.452;2023-04-22T09:31:31;98923.47;;;27.12;23.95
43115;BME280;28727;50.068;14.452;2023-04-22T09:34:03;98915.19;;;26.65;24.07
43115;BME280;28727;50.068;14.452;2023-04-22T09:36:35;98922.19;;;26.71;24.32
43115;BME280;28727;50.068;14.452;2023-04-22T09:39:36;98921.81;;;26.82;23.88
43115;BME280;28727;50.068;14.452;2023-04-22T09:42:09;98918.47;;;26.23;24.34
43115;BME280;28727;50.068;14.452;2023-04-22T09:44:44;98922.41;;;26.01;22.51
43115;BME280;28727;50.068;14.452;2023-04-22T09:47:23;98917.06;;;25.91;22.85
43115;BME280;28727;50.068;14.452;2023-04-22T09:49:55;98914.56;;;26.00;22.16
43115;BME280;28727;50.068;14.452;2023-04-22T09:52:27;98906.34;;;26.15;22.19
43115;BME280;28727;50.068;14.452;2023-04-22T09:54:59;98900.63;;;26.27;22.45
43115;BME280;28727;50.068;14.452;2023-04-22T09:57:32;98903.59;;;26.20;22.45
43115;BME280;28727;50.068;14.452;2023-04-22T10:00:04;98912.59;;;25.51;22.10
43115;BME280;28727;50.068;14.452;2023-04-22T10:02:37;98906.50;;;25.05;22.78
43115;BME280;28727;50.068;14.452;2023-04-22T10:05:09;98896.53;;;24.85;23.01
43115;BME280;28727;50.068;14.452;2023-04-22T10:07:43;98892.75;;;24.71;23.04
43115;BME280;28727;50.068;14.452;2023-04-22T10:10:15;98888.84;;;25.33;23.22
43115;BME280;28727;50.068;14.452;2023-04-22T10:12:51;98890.75;;;25.97;22.46
43115;BME280;28727;50.068;14.452;2023-04-22T10:15:24;98900.41;;;26.13;22.23
43115;BME280;28727;50.068;14.452;2023-04-22T10:17:58;98902.34;;;25.43;22.47
43115;BME280;28727;50.068;14.452;2023-04-22T10:20:30;98890.13;;;25.66;22.86
43115;BME280;28727;50.068;14.452;2023-04-22T10:23:13;98874.88;;;25.85;22.21
43115;BME280;28727;50.068;14.452;2023-04-22T10:25:51;98874.94;;;26.14;22.17
43115;BME280;28727;50.068;14.452;2023-04-22T10:28:27;98873.09;;;26.04;21.11
43115;BME280;28727;50.068;14.452;2023-04-22T10:31:05;98884.19;;;25.59;21.78
43115;BME280;28727;50.068;14.452;2023-04-22T10:34:13;98862.50;;;25.64;22.02
43115;BME280;28727;50.068;14.452;2023-04-22T10:37:17;98874.78;;;25.41;21.20
43115;BME280;28727;50.068;14.452;2023-04-22T10:40:10;98869.78;;;24.99;21.81
43115;BME280;28727;50.068;14.452;2023-04-22T10:42:49;98869.25;;;24.52;22.51
43115;BME280;28727;50.068;14.452;2023-04-22T10:45:24;98874.41;;;24.48;22.31
43115;BME280;28727;50.068;14.452;2023-04-22T10:48:01;98872.25;;;24.35;22.60
43115;BME280;28727;50.068;14.452;2023-04-22T10:50:34;98860.34;;;24.51;22.99
43115;BME280;28727;50.068;14.452;2023-04-22T10:53:35;98881.91;;;24.16;22.61
43115;BME280;28727;50.068;14.452;2023-04-22T10:56:15;98868.41;;;24.00;23.76
43115;BME280;28727;50.068;14.452;2023-04-22T10:58:48;98844.94;;;24.06;24.05
43115;BME280;28727;50.068;14.452;2023-04-22T11:01:21;98850.88;;;24.13;23.76
43115;BME280;28727;50.068;14.452;2023-04-22T11:04:19;98855.19;;;23.94;23.39
43115;BME280;28727;50.068;14.452;2023-04-22T11:10:07;98838.16;;;23.98;23.36
43115;BME280;28727;50.068;14.452;2023-04-22T11:12:41;98836.28;;;23.89;23.91
43115;BME280;28727;50.068;14.452;2023-04-22T11:15:15;98850.00;;;23.72;24.24
43115;BME280;28727;50.068;14.452;2023-04-22T11:17:52;98855.09;;;23.53;24.29
43115;BME280;28727;50.068;14.452;2023-04-22T11:20:29;98823.56;;;23.69;24.28
43115;BME280;28727;50.068;14.452;2023-04-22T11:23:04;98825.81;;;24.23;23.96
43115;BME280;28727;50.068;14.452;2023-04-22T11:25:36;98828.19;;;24.70;23.62
43115;BME280;28727;50.068;14.452;2023-04-22T11:28:14;98829.50;;;25.03;23.48
43115;BME280;28727;50.068;14.452;2023-04-22T11:30:52;98834.72;;;24.54;23.37
43115;BME280;28727;50.068;14.452;2023-04-22T11:33:23;98829.00;;;24.04;24.24
43115;BME280;28727;50.068;14.452;2023-04-22T11:35:55;98833.66;;;24.19;24.32
43115;BME280;28727;50.068;14.452;2023-04-22T11:38:29;98815.81;;;24.23;23.76
43115;BME280;28727;50.068;14.452;2023-04-22T11:41:01;98823.38;;;24.46;23.71
43115;BME280;28727;50.068;14.452;2023-04-22T11:43:32;98815.25;;;24.62;23.52
43115;BME280;28727;50.068;14.452;2023-04-22T11:46:04;98815.53;;;24.50;23.63
43115;BME280;28727;50.068;14.452;2023-04-22T11:48:36;98812.53;;;24.67;23.93
43115;BME280;28727;50.068;14.452;2023-04-22T11:51:09;98808.47;;;24.79;23.89
43115;BME280;28727;50.068;14.452;2023-04-22T11:53:50;98805.38;;;25.16;23.33
43115;BME280;28727;50.068;14.452;2023-04-22T11:56:26;98805.88;;;25.23;23.36
43115;BME280;28727;50.068;14.452;2023-04-22T11:58:58;98805.41;;;25.06;23.25
43115;BME280;28727;50.068;14.452;2023-04-22T12:01:30;98806.84;;;24.78;23.39
43115;BME280;28727;50.068;14.452;2023-04-22T12:04:02;98803.06;;;24.64;23.17
43115;BME280;28727;50.068;14.452;2023-04-22T12:06:34;98815.75;;;24.89;23.24
43115;BME280;28727;50.068;14.452;2023-04-22T12:09:06;98801.19;;;24.60;23.09
43115;BME280;28727;50.068;14.452;2023-04-22T12:11:38;98785.03;;;24.29;24.13
43115;BME280;28727;50.068;14.452;2023-04-22T12:14:10;98794.50;;;24.22;24.37
43115;BME280;28727;50.068;14.452;2023-04-22T12:16:42;98803.63;;;24.11;24.11
43115;BME280;28727;50.068;14.452;2023-04-22T12:19:14;98797.72;;;24.14;24.39
43115;BME280;28727;50.068;14.452;2023-04-22T12:21:46;98788.00;;;24.18;24.38
43115;BME280;28727;50.068;14.452;2023-04-22T12:24:17;98785.06;;;24.24;23.94
43115;BME280;28727;50.068;14.452;2023-04-22T12:26:53;98777.72;;;24.40;24.01
43115;BME280;28727;50.068;14.452;2023-04-22T12:29:32;98788.81;;;24.38;23.53
43115;BME280;28727;50.068;14.452;2023-04-22T12:32:04;98774.50;;;24.13;24.37
43115;BME280;28727;50.068;14.452;2023-04-22T12:35:02;98779.34;;;23.95;24.54
43115;BME280;28727;50.068;14.452;2023-04-22T12:37:34;98773.69;;;23.92;24.82
43115;BME280;28727;50.068;14.452;2023-04-22T12:40:06;98777.72;;;23.94;25.00
43115;BME280;28727;50.068;14.452;2023-04-22T12:42:38;98770.44;;;24.10;24.83
43115;BME280;28727;50.068;14.452;2023-04-22T12:45:10;98760.19;;;24.17;24.57
43115;BME280;28727;50.068;14.452;2023-04-22T12:47:44;98758.31;;;24.07;24.20
43115;BME280;28727;50.068;14.452;2023-04-22T12:50:17;98749.69;;;24.26;24.67
43115;BME280;28727;50.068;14.452;2023-04-22T12:52:54;98755.88;;;24.36;24.60
43115;BME280;28727;50.068;14.452;2023-04-22T12:55:26;98754.81;;;23.97;24.81
43115;BME280;28727;50.068;14.452;2023-04-22T12:57:58;98752.66;;;23.79;25.45
43115;BME280;28727;50.068;14.452;2023-04-22T13:00:30;98746.69;;;23.82;25.42
43115;BME280;28727;50.068;14.452;2023-04-22T13:03:02;98740.22;;;23.83;25.59
43115;BME280;28727;50.068;14.452;2023-04-22T13:05:34;98736.72;;;23.72;25.59
43115;BME280;28727;50.068;14.452;2023-04-22T13:08:06;98747.25;;;23.74;25.40
43115;BME280;28727;50.068;14.452;2023-04-22T13:10:38;98743.44;;;23.64;25.76
43115;BME280;28727;50.068;14.452;2023-04-22T13:13:10;98734.03;;;23.62;25.91
43115;BME280;28727;50.068;14.452;2023-04-22T13:15:46;98737.00;;;23.71;25.99
43115;BME280;28727;50.068;14.452;2023-04-22T13:18:18;98724.84;;;23.63;25.96
43115;BME280;28727;50.068;14.452;2023-04-22T13:20:54;98727.28;;;23.49;25.81
43115;BME280;28727;50.068;14.452;2023-04-22T13:23:27;98723.16;;;23.37;26.19
43115;BME280;28727;50.068;14.452;2023-04-22T13:25:59;98727.19;;;23.24;26.21
43115;BME280;28727;50.068;14.452;2023-04-22T13:28:31;98722.84;;;23.08;26.28
43115;BME280;28727;50.068;14.452;2023-04-22T13:31:03;98719.91;;;23.24;26.11
43115;BME280;28727;50.068;14.452;2023-04-22T13:33:35;98717.22;;;23.45;25.87
43115;BME280;28727;50.068;14.452;2023-04-22T13:36:09;98710.78;;;23.46;26.37